createdAt,value
2023-05-14T00:00:52.099Z,67.73
2023-05-14T00:03:19.991Z,67.88
2023-05-14T00:05:49.215Z,68.38
2023-05-14T00:08:16.934Z,68.24
2023-05-14T00:10:44.726Z,68.51
2023-05-14T00:13:12.474Z,68.25
2023-05-14T00:15:41.694Z,68.56
2023-05-14T00:18:12.146Z,68.35
2023-05-14T00:20:40.092Z,68.65
2023-05-14T00:23:07.824Z,68.62
2023-05-14T00:25:35.795Z,68.47
2023-05-14T00:28:04.103Z,68.33
2023-05-14T00:30:31.916Z,68.65
2023-05-14T00:33:01.138Z,68.73
2023-05-14T00:35:29.031Z,68.69
2023-05-14T00:37:56.790Z,67.99
2023-05-14T00:40:27.344Z,68.18
2023-05-14T00:42:55.562Z,67.47
2023-05-14T00:45:23.425Z,67.21
2023-05-14T00:47:51.415Z,67.00
2023-05-14T00:50:21.347Z,67.05
2023-05-14T00:52:49.276Z,66.88
2023-05-14T00:55:17.734Z,66.58
2023-05-14T00:57:45.737Z,66.73
2023-05-14T01:00:14.355Z,66.49
2023-05-14T01:02:42.207Z,66.70
2023-05-14T01:05:10.363Z,66.39
2023-05-14T01:07:48.825Z,66.82
2023-05-14T01:10:18.706Z,66.66
2023-05-14T01:12:49.153Z,67.04
2023-05-14T01:15:20.662Z,66.93
2023-05-14T01:17:53.282Z,68.20
2023-05-14T01:20:21.327Z,69.31
2023-05-14T01:22:50.542Z,69.35
2023-05-14T01:25:18.576Z,69.39
2023-05-14T01:27:52.771Z,69.85
2023-05-14T01:30:23.766Z,69.54
2023-05-14T01:32:54.724Z,69.69
2023-05-14T01:35:23.889Z,69.67
2023-05-14T01:37:53.873Z,69.37
2023-05-14T01:40:21.853Z,69.67
2023-05-14T01:42:51.827Z,69.92
2023-05-14T01:45:21.287Z,70.27
2023-05-14T01:47:49.201Z,69.84
2023-05-14T01:50:17.094Z,70.27
2023-05-14T01:52:44.914Z,70.03
2023-05-14T01:55:14.051Z,69.96
2023-05-14T01:57:41.806Z,70.10
2023-05-14T02:00:10.231Z,70.10
2023-05-14T02:02:38.075Z,70.52
2023-05-14T02:05:07.185Z,70.27
2023-05-14T02:07:34.997Z,70.20
2023-05-14T02:10:02.777Z,70.10
2023-05-14T02:12:31.913Z,70.39
2023-05-14T02:14:59.746Z,70.41
2023-05-14T02:17:27.705Z,70.77
2023-05-14T02:20:10.647Z,70.52
2023-05-14T02:22:41.293Z,70.73
2023-05-14T02:25:10.510Z,70.41
2023-05-14T02:27:39.672Z,70.62
2023-05-14T02:30:08.644Z,71.01
2023-05-14T02:32:36.645Z,71.07
2023-05-14T02:35:04.646Z,71.17
2023-05-14T02:37:32.432Z,71.56
2023-05-14T02:40:00.302Z,71.56
2023-05-14T02:42:28.114Z,71.43
2023-05-14T02:44:57.206Z,71.32
2023-05-14T02:47:25.110Z,71.95
2023-05-14T02:49:52.958Z,71.90
2023-05-14T02:52:20.724Z,71.92
2023-05-14T02:54:48.515Z,71.73
2023-05-14T02:57:16.294Z,72.07
2023-05-14T02:59:44.047Z,72.12
2023-05-14T03:02:13.544Z,72.35
2023-05-14T03:04:41.725Z,72.64
2023-05-14T03:07:09.541Z,72.07
2023-05-14T03:09:38.415Z,72.53
2023-05-14T03:12:07.019Z,72.49
2023-05-14T03:14:34.887Z,72.93
2023-05-14T03:17:03.750Z,72.45
2023-05-14T03:19:33.063Z,73.07
2023-05-14T03:22:00.818Z,72.82
2023-05-14T03:24:28.611Z,73.10
2023-05-14T03:26:56.353Z,73.14
2023-05-14T03:29:24.206Z,73.28
2023-05-14T03:31:51.969Z,73.58
2023-05-14T03:34:19.812Z,73.74
2023-05-14T03:36:48.972Z,73.26
2023-05-14T03:39:19.756Z,73.72
2023-05-14T03:41:47.734Z,73.90
2023-05-14T03:44:15.811Z,74.10
2023-05-14T03:46:43.694Z,74.24
2023-05-14T03:49:11.543Z,74.06
2023-05-14T03:51:39.327Z,74.11
2023-05-14T03:54:08.555Z,74.42
2023-05-14T03:56:36.398Z,73.96
2023-05-14T03:59:04.208Z,74.14
2023-05-14T04:01:32.544Z,74.45
2023-05-14T04:04:00.382Z,74.70
2023-05-14T04:06:28.382Z,74.98
2023-05-14T04:08:56.192Z,74.40
2023-05-14T04:11:25.413Z,74.36
2023-05-14T04:13:53.212Z,74.68
2023-05-14T04:16:21.165Z,74.52
2023-05-14T04:18:49.056Z,74.67
2023-05-14T04:21:16.902Z,74.33
2023-05-14T04:23:44.642Z,74.52
2023-05-14T04:26:12.506Z,73.86
2023-05-14T04:28:41.635Z,73.88
2023-05-14T04:31:09.522Z,74.30
2023-05-14T04:33:37.241Z,73.81
2023-05-14T04:36:06.471Z,73.46
2023-05-14T04:38:34.275Z,73.71
2023-05-14T04:41:02.198Z,73.26
2023-05-14T04:43:29.964Z,73.05
2023-05-14T04:45:59.170Z,73.00
2023-05-14T04:48:27.038Z,73.14
2023-05-14T04:50:54.828Z,72.61
2023-05-14T04:53:22.593Z,72.74
2023-05-14T04:55:50.381Z,72.64
2023-05-14T04:58:18.176Z,72.30
2023-05-14T05:00:46.160Z,72.26
2023-05-14T05:03:15.606Z,72.03
2023-05-14T05:05:43.562Z,72.23
2023-05-14T05:08:11.873Z,72.01
2023-05-14T05:10:39.606Z,71.50
2023-05-14T05:13:07.383Z,71.29
2023-05-14T05:15:35.309Z,71.44
2023-05-14T05:18:03.238Z,71.06
2023-05-14T05:20:32.540Z,70.79
2023-05-14T05:23:00.626Z,70.66
2023-05-14T05:25:28.398Z,69.94
2023-05-14T05:27:56.227Z,70.07
2023-05-14T05:30:24.183Z,70.04
2023-05-14T05:32:52.211Z,69.89
2023-05-14T05:35:20.108Z,69.70
2023-05-14T05:37:49.270Z,69.51
2023-05-14T05:40:17.357Z,69.32
2023-05-14T05:42:45.199Z,69.24
2023-05-14T05:45:13.035Z,69.32
2023-05-14T05:47:40.974Z,69.23
2023-05-14T05:50:09.994Z,68.91
2023-05-14T05:52:37.833Z,68.09
2023-05-14T05:55:07.882Z,68.28
2023-05-14T05:57:35.731Z,68.05
2023-05-14T06:00:12.606Z,67.79
2023-05-14T06:02:40.594Z,68.10
2023-05-14T06:05:09.683Z,67.63
2023-05-14T06:07:37.593Z,67.85
2023-05-14T06:10:07.894Z,67.47
2023-05-14T06:12:35.822Z,68.18
2023-05-14T06:15:03.796Z,67.64
2023-05-14T06:17:31.635Z,66.92
2023-05-14T06:19:59.448Z,65.83
2023-05-14T06:22:27.337Z,65.52
2023-05-14T06:24:55.103Z,65.24
2023-05-14T06:27:24.242Z,65.47
2023-05-14T06:29:52.039Z,65.56
2023-05-14T06:32:20.011Z,64.29
2023-05-14T06:34:47.859Z,64.65
2023-05-14T06:37:15.610Z,64.27
2023-05-14T06:39:48.185Z,64.07
2023-05-14T06:42:15.976Z,64.19
2023-05-14T06:44:45.399Z,63.43
2023-05-14T06:47:13.316Z,63.27
2023-05-14T06:49:41.194Z,63.35
2023-05-14T06:52:09.323Z,62.78
2023-05-14T06:54:37.131Z,63.20
2023-05-14T06:57:05.265Z,62.54
2023-05-14T06:59:33.350Z,62.15
2023-05-14T07:02:03.194Z,61.47
2023-05-14T07:04:31.036Z,60.79
2023-05-14T07:06:58.947Z,59.91
2023-05-14T07:09:27.060Z,61.12
2023-05-14T07:11:54.820Z,59.78
2023-05-14T07:14:22.998Z,61.60
2023-05-14T07:16:51.186Z,61.23
2023-05-14T07:19:20.547Z,61.10
2023-05-14T07:21:48.684Z,61.13
2023-05-14T07:24:16.530Z,60.88
2023-05-14T07:26:44.466Z,61.37
2023-05-14T07:29:12.571Z,61.18
2023-05-14T07:31:40.457Z,61.06
2023-05-14T07:34:10.917Z,60.38
2023-05-14T07:36:40.152Z,60.24
2023-05-14T07:39:08.164Z,61.27
2023-05-14T07:41:35.941Z,60.97
2023-05-14T07:44:05.041Z,60.10
2023-05-14T07:46:32.993Z,58.95
2023-05-14T07:49:00.750Z,59.76
2023-05-14T07:51:29.570Z,59.22
2023-05-14T07:53:58.830Z,58.72
2023-05-14T07:56:26.780Z,58.51
2023-05-14T07:58:55.056Z,58.29
2023-05-14T08:01:22.940Z,58.73
2023-05-14T08:03:50.908Z,58.70
2023-05-14T08:06:21.010Z,58.49
2023-05-14T08:08:48.809Z,57.37
2023-05-14T08:11:18.563Z,57.43
2023-05-14T08:13:46.754Z,57.10
2023-05-14T08:16:14.651Z,57.44
2023-05-14T08:18:42.782Z,57.80
2023-05-14T08:21:10.723Z,57.51
2023-05-14T08:23:38.510Z,58.12
2023-05-14T08:26:06.840Z,58.16
2023-05-14T08:28:36.222Z,56.37
2023-05-14T08:31:04.110Z,55.47
2023-05-14T08:33:32.099Z,56.65
2023-05-14T08:36:00.716Z,56.89
2023-05-14T08:38:28.469Z,56.47
2023-05-14T08:40:58.236Z,55.99
2023-05-14T08:43:27.989Z,55.22
2023-05-14T08:45:59.969Z,54.85
2023-05-14T08:48:28.274Z,53.80
2023-05-14T08:50:56.612Z,53.55
2023-05-14T08:53:24.656Z,54.37
2023-05-14T08:55:52.865Z,53.85
2023-05-14T08:58:20.794Z,53.92
2023-05-14T09:00:49.228Z,53.62
2023-05-14T09:03:18.808Z,53.80
2023-05-14T09:05:46.888Z,53.89
2023-05-14T09:08:14.779Z,53.94
2023-05-14T09:10:42.549Z,52.24
2023-05-14T09:13:10.440Z,52.16
2023-05-14T09:15:38.662Z,50.97
2023-05-14T09:18:06.838Z,49.85
2023-05-14T09:20:36.106Z,47.99
2023-05-14T09:23:04.243Z,47.18
2023-05-14T09:25:33.003Z,47.95
2023-05-14T09:28:00.780Z,47.89
2023-05-14T09:30:28.563Z,47.74
2023-05-14T09:32:56.384Z,48.50
2023-05-14T09:35:25.497Z,47.25
2023-05-14T09:37:55.431Z,48.09
2023-05-14T09:40:25.161Z,48.99
2023-05-14T09:42:53.253Z,47.89
2023-05-14T09:45:21.249Z,47.32
2023-05-14T09:47:49.143Z,46.10
2023-05-14T09:50:17.015Z,46.04
2023-05-14T09:52:44.842Z,46.78
2023-05-14T09:55:14.741Z,46.44
2023-05-14T09:57:42.691Z,46.84
2023-05-14T10:00:12.768Z,47.46
2023-05-14T10:02:41.655Z,46.55
2023-05-14T10:05:10.458Z,45.50
2023-05-14T10:07:42.692Z,44.14
2023-05-14T10:10:16.642Z,45.66
2023-05-14T10:12:47.618Z,46.49
2023-05-14T10:15:18.850Z,46.37
2023-05-14T10:17:50.710Z,46.52
2023-05-14T10:20:18.730Z,45.82
2023-05-14T10:22:46.599Z,47.04
2023-05-14T10:25:16.009Z,44.65
2023-05-14T10:27:44.028Z,46.01
2023-05-14T10:30:13.620Z,45.98
2023-05-14T10:32:42.042Z,46.47
2023-05-14T10:35:22.726Z,47.50
2023-05-14T10:37:52.585Z,46.59
2023-05-14T10:40:26.071Z,47.64
2023-05-14T10:42:54.544Z,46.96
2023-05-14T10:45:24.064Z,47.33
2023-05-14T10:47:52.087Z,47.00
2023-05-14T10:50:19.975Z,46.40
2023-05-14T10:52:47.774Z,46.19
2023-05-14T10:55:16.867Z,46.02
2023-05-14T10:57:47.237Z,45.58
2023-05-14T11:00:16.222Z,46.86
2023-05-14T11:02:45.105Z,46.50
2023-05-14T11:05:15.982Z,46.76
2023-05-14T11:07:45.527Z,46.24
2023-05-14T11:10:14.169Z,46.73
2023-05-14T11:12:43.134Z,47.01
2023-05-14T11:15:13.869Z,46.64
2023-05-14T11:17:42.997Z,47.49
2023-05-14T11:20:12.712Z,46.61
2023-05-14T11:22:42.169Z,46.51
2023-05-14T11:25:11.056Z,47.10
2023-05-14T11:27:39.823Z,46.42
2023-05-14T11:30:15.775Z,45.96
2023-05-14T11:32:45.581Z,46.68
2023-05-14T11:35:13.752Z,46.66
2023-05-14T11:37:41.632Z,46.21
2023-05-14T11:40:11.105Z,46.37
2023-05-14T11:42:38.876Z,45.16
2023-05-14T11:45:07.750Z,46.74
2023-05-14T11:47:36.999Z,46.92
2023-05-14T11:50:05.956Z,47.17
2023-05-14T11:52:38.874Z,47.31
2023-05-14T11:55:07.863Z,47.59
2023-05-14T11:57:36.849Z,47.80
2023-05-14T12:00:06.535Z,46.64
2023-05-14T12:02:34.477Z,46.93
2023-05-14T12:05:03.765Z,46.58
2023-05-14T12:07:32.690Z,46.21
2023-05-14T12:10:03.876Z,45.58
2023-05-14T12:12:36.228Z,46.47
2023-05-14T12:15:11.180Z,45.35
2023-05-14T12:17:39.192Z,44.70
2023-05-14T12:20:10.505Z,42.81
2023-05-14T12:22:38.702Z,43.67
2023-05-14T12:25:12.545Z,43.47
2023-05-14T12:27:41.381Z,43.62
2023-05-14T12:32:41.633Z,42.44
2023-05-14T12:35:11.319Z,42.15
2023-05-14T12:37:40.079Z,41.07
2023-05-14T12:40:09.782Z,40.03
2023-05-14T12:42:37.821Z,38.56
2023-05-14T12:45:08.570Z,37.65
2023-05-14T12:47:37.477Z,38.00
2023-05-14T12:50:06.186Z,37.70
2023-05-14T12:52:39.307Z,38.01
2023-05-14T12:55:08.881Z,36.96
2023-05-14T12:57:36.878Z,38.77
2023-05-14T13:00:12.231Z,38.39
2023-05-14T13:02:42.543Z,40.25
2023-05-14T13:05:11.601Z,39.87
2023-05-14T13:07:40.883Z,39.73
2023-05-14T13:10:09.896Z,39.46
2023-05-14T13:12:38.748Z,40.65
2023-05-14T13:15:07.395Z,41.97
2023-05-14T13:17:35.223Z,42.70
2023-05-14T13:20:03.014Z,42.77
2023-05-14T13:22:30.902Z,43.51
2023-05-14T13:25:00.271Z,43.72
2023-05-14T13:27:28.296Z,44.24
2023-05-14T13:29:56.731Z,44.66
2023-05-14T13:32:24.524Z,45.53
2023-05-14T13:34:52.346Z,44.42
2023-05-14T13:37:20.165Z,44.44
2023-05-14T13:39:49.139Z,44.30
2023-05-14T13:42:19.858Z,42.32
2023-05-14T13:44:47.628Z,41.63
2023-05-14T13:47:15.374Z,40.29
2023-05-14T13:49:43.790Z,41.02
2023-05-14T13:52:11.563Z,38.53
2023-05-14T13:54:39.352Z,37.86
2023-05-14T13:57:07.127Z,39.13
2023-05-14T13:59:36.296Z,37.63
2023-05-14T14:02:04.323Z,37.35
2023-05-14T14:04:32.333Z,36.12
2023-05-14T14:07:00.127Z,35.95
2023-05-14T14:09:27.920Z,36.09
2023-05-14T14:11:55.717Z,35.11
2023-05-14T14:14:23.535Z,35.78
2023-05-14T14:16:52.663Z,36.99
2023-05-14T14:19:20.881Z,36.74
2023-05-14T14:24:21.508Z,37.71
2023-05-14T14:26:49.271Z,37.21
2023-05-14T14:29:17.039Z,35.72
2023-05-14T14:31:44.802Z,35.24
2023-05-14T14:34:13.942Z,34.37
2023-05-14T14:36:41.737Z,33.90
2023-05-14T14:39:09.492Z,34.67
2023-05-14T14:41:37.303Z,35.69
2023-05-14T14:44:05.594Z,36.54
2023-05-14T14:46:33.603Z,37.37
2023-05-14T14:49:01.409Z,36.88
2023-05-14T14:51:31.458Z,36.23
2023-05-14T14:53:59.516Z,35.13
2023-05-14T14:56:27.932Z,35.24
2023-05-14T14:58:55.663Z,35.29
2023-05-14T15:01:23.839Z,34.49
2023-05-14T15:03:51.667Z,37.04
2023-05-14T15:06:19.478Z,37.13
2023-05-14T15:08:48.614Z,37.95
2023-05-14T15:11:16.367Z,37.48
2023-05-14T15:13:44.157Z,38.85
2023-05-14T15:16:12.523Z,38.76
2023-05-14T15:18:40.436Z,39.36
2023-05-14T15:21:08.231Z,39.52
2023-05-14T15:23:35.998Z,39.80
2023-05-14T15:26:05.394Z,39.54
2023-05-14T15:28:33.288Z,38.83
2023-05-14T15:31:02.432Z,39.88
2023-05-14T15:33:30.212Z,44.72
2023-05-14T15:35:58.002Z,47.60
2023-05-14T15:38:25.768Z,50.48
2023-05-14T15:40:53.511Z,52.10
2023-05-14T15:43:22.655Z,54.35
2023-05-14T15:45:50.498Z,54.52
2023-05-14T15:48:18.324Z,54.40
2023-05-14T15:50:48.982Z,54.42
2023-05-14T15:53:17.398Z,54.71
2023-05-14T15:55:45.643Z,54.10
2023-05-14T15:58:13.864Z,54.78
2023-05-14T16:00:42.979Z,54.86
2023-05-14T16:03:11.129Z,53.16
2023-05-14T16:05:39.059Z,52.27
2023-05-14T16:08:07.469Z,52.72
2023-05-14T16:10:35.240Z,50.18
2023-05-14T16:13:03.021Z,50.68
2023-05-14T16:15:30.792Z,50.73
2023-05-14T16:18:01.019Z,51.57
2023-05-14T16:20:28.916Z,49.79
2023-05-14T16:22:56.685Z,47.16
2023-05-14T16:25:24.479Z,44.65
2023-05-14T16:27:52.303Z,44.83
2023-05-14T16:30:20.080Z,45.69
2023-05-14T16:32:49.532Z,44.82
2023-05-14T16:35:18.811Z,42.77
2023-05-14T16:37:46.562Z,43.36
2023-05-14T16:40:16.222Z,42.59
2023-05-14T16:42:44.320Z,42.42
2023-05-14T16:45:13.069Z,42.61
2023-05-14T16:47:41.423Z,42.18
2023-05-14T16:50:09.915Z,42.15
2023-05-14T16:52:39.032Z,42.39
2023-05-14T16:55:07.640Z,43.07
2023-05-14T16:57:35.623Z,48.66
2023-05-14T17:00:06.278Z,51.08
2023-05-14T17:02:34.265Z,52.31
2023-05-14T17:05:02.422Z,52.51
2023-05-14T17:07:31.205Z,53.28
2023-05-14T17:10:00.785Z,53.92
2023-05-14T17:12:28.615Z,52.61
2023-05-14T17:14:56.408Z,52.89
2023-05-14T17:17:24.231Z,52.61
2023-05-14T17:19:52.006Z,52.12
2023-05-14T17:22:19.766Z,50.17
2023-05-14T17:24:47.591Z,48.70
2023-05-14T17:27:16.872Z,48.74
2023-05-14T17:29:44.647Z,47.77
2023-05-14T17:32:12.470Z,47.92
2023-05-14T17:34:40.241Z,48.31
2023-05-14T17:37:08.098Z,47.96
2023-05-14T17:39:35.863Z,47.40
2023-05-14T17:42:03.815Z,46.29
2023-05-14T17:44:32.938Z,47.67
2023-05-14T17:47:00.832Z,48.25
2023-05-14T17:49:28.760Z,47.97
2023-05-14T17:51:56.542Z,49.04
2023-05-14T17:54:24.296Z,48.20
2023-05-14T17:56:52.189Z,48.88
2023-05-14T17:59:19.986Z,49.11
2023-05-14T18:01:49.403Z,50.01
2023-05-14T18:04:17.189Z,50.79
2023-05-14T18:06:45.719Z,51.25
2023-05-14T18:09:13.461Z,51.63
2023-05-14T18:11:41.235Z,51.98
2023-05-14T18:14:08.999Z,52.83
2023-05-14T18:16:37.777Z,53.50
2023-05-14T18:19:07.234Z,53.85
2023-05-14T18:21:34.991Z,54.62
2023-05-14T18:24:02.781Z,54.63
2023-05-14T18:26:32.212Z,54.58
2023-05-14T18:29:01.401Z,55.20
2023-05-14T18:31:29.232Z,54.64
2023-05-14T18:33:57.051Z,55.37
2023-05-14T18:36:26.153Z,55.63
2023-05-14T18:38:53.892Z,56.04
2023-05-14T18:41:21.727Z,56.15
2023-05-14T18:43:49.949Z,56.40
2023-05-14T18:46:18.129Z,56.11
2023-05-14T18:48:46.073Z,56.53
2023-05-14T18:51:13.904Z,56.66
2023-05-14T18:53:43.134Z,57.13
2023-05-14T18:56:11.339Z,57.61
2023-05-14T18:58:39.126Z,58.85
2023-05-14T19:01:06.967Z,59.09
2023-05-14T19:03:35.065Z,58.79
2023-05-14T19:06:02.978Z,59.15
2023-05-14T19:08:30.758Z,58.76
2023-05-14T19:10:59.892Z,58.62
2023-05-14T19:13:28.581Z,59.52
2023-05-14T19:15:56.565Z,59.37
2023-05-14T19:18:24.395Z,59.08
2023-05-14T19:20:52.150Z,59.00
2023-05-14T19:23:19.903Z,59.27
2023-05-14T19:25:47.727Z,60.06
2023-05-14T19:28:18.748Z,60.59
2023-05-14T19:30:46.516Z,60.85
2023-05-14T19:33:14.339Z,61.97
2023-05-14T19:35:42.099Z,62.17
2023-05-14T19:38:10.784Z,62.10
2023-05-14T19:40:38.616Z,62.46
2023-05-14T19:43:07.881Z,62.33
2023-05-14T19:45:39.229Z,61.37
2023-05-14T19:48:07.381Z,60.92
2023-05-14T19:50:36.834Z,60.76
2023-05-14T19:53:04.678Z,61.00
2023-05-14T19:55:32.472Z,60.99
2023-05-14T19:58:00.252Z,60.64
2023-05-14T20:00:28.205Z,61.68
2023-05-14T20:02:59.715Z,61.68
2023-05-14T20:05:27.896Z,61.64
2023-05-14T20:07:55.796Z,62.88
2023-05-14T20:10:24.336Z,63.12
2023-05-14T20:12:52.248Z,63.38
2023-05-14T20:15:20.031Z,62.82
2023-05-14T20:17:47.809Z,61.97
2023-05-14T20:20:16.942Z,62.65
2023-05-14T20:22:44.854Z,62.26
2023-05-14T20:25:12.767Z,61.75
2023-05-14T20:27:41.276Z,62.32
2023-05-14T20:30:09.894Z,61.38
2023-05-14T20:32:37.883Z,61.45
2023-05-14T20:35:06.446Z,61.18
2023-05-14T20:37:35.849Z,60.97
2023-05-14T20:40:05.172Z,61.68
2023-05-14T20:42:33.047Z,61.22
2023-05-14T20:45:00.870Z,61.95
2023-05-14T20:47:30.564Z,61.41
2023-05-14T20:49:58.427Z,61.82
2023-05-14T20:52:26.192Z,61.63
2023-05-14T20:54:55.338Z,61.40
2023-05-14T20:57:23.371Z,60.49
2023-05-14T20:59:51.132Z,60.59
2023-05-14T21:02:18.972Z,60.69
2023-05-14T21:04:47.272Z,60.30
2023-05-14T21:07:15.062Z,59.21
2023-05-14T21:09:46.389Z,59.36
2023-05-14T21:12:15.531Z,59.36
2023-05-14T21:14:43.339Z,59.80
2023-05-14T21:17:11.116Z,59.36
2023-05-14T21:19:38.924Z,59.92
2023-05-14T21:22:07.772Z,59.44
2023-05-14T21:24:35.528Z,60.26
2023-05-14T21:27:03.284Z,59.93
2023-05-14T21:29:32.424Z,59.96
2023-05-14T21:32:00.338Z,60.48
2023-05-14T21:34:29.773Z,59.81
2023-05-14T21:36:58.971Z,59.94
2023-05-14T21:39:26.688Z,59.92
2023-05-14T21:41:54.431Z,60.59
2023-05-14T21:44:22.293Z,60.27
2023-05-14T21:46:51.593Z,60.54
2023-05-14T21:49:19.312Z,60.51
2023-05-14T21:51:47.110Z,60.39
2023-05-14T21:54:14.837Z,60.40
2023-05-14T21:56:42.676Z,59.71
2023-05-14T21:59:11.108Z,60.47
2023-05-14T22:01:51.017Z,60.70
2023-05-14T22:04:28.681Z,60.06
2023-05-14T22:06:57.363Z,59.72
2023-05-14T22:09:25.178Z,59.03
2023-05-14T22:11:52.979Z,59.25
2023-05-14T22:14:21.031Z,59.43
2023-05-14T22:16:48.910Z,59.61
2023-05-14T22:19:17.053Z,59.69
2023-05-14T22:21:46.599Z,59.91
2023-05-14T22:24:14.527Z,59.45
2023-05-14T22:26:42.439Z,60.13
2023-05-14T22:29:10.865Z,59.83
2023-05-14T22:31:38.956Z,59.62
2023-05-14T22:34:06.720Z,59.50
2023-05-14T22:36:34.966Z,59.39
2023-05-14T22:39:04.495Z,58.99
2023-05-14T22:41:32.482Z,59.55
2023-05-14T22:44:00.518Z,58.59
2023-05-14T22:46:28.716Z,59.34
2023-05-14T22:48:56.562Z,59.17
2023-05-14T22:51:24.327Z,60.08
2023-05-14T22:53:52.287Z,61.75
2023-05-14T22:56:21.941Z,62.68
2023-05-14T22:58:49.694Z,63.36
2023-05-14T23:01:17.867Z,64.95
2023-05-14T23:03:46.016Z,65.47
2023-05-14T23:06:14.820Z,65.98
2023-05-14T23:08:42.762Z,65.60
2023-05-14T23:11:10.809Z,65.77
2023-05-14T23:13:40.266Z,65.65
2023-05-14T23:16:08.400Z,65.29
2023-05-14T23:18:36.781Z,64.32
2023-05-14T23:21:04.894Z,63.93
2023-05-14T23:23:32.728Z,63.42
2023-05-14T23:26:01.075Z,62.67
2023-05-14T23:28:29.052Z,61.41
2023-05-14T23:30:58.264Z,61.29
2023-05-14T23:33:26.119Z,60.96
2023-05-14T23:35:54.276Z,60.80
2023-05-14T23:38:22.285Z,60.89
2023-05-14T23:40:50.342Z,60.43
2023-05-14T23:43:18.279Z,60.37
2023-05-14T23:45:46.122Z,60.19
2023-05-14T23:48:15.380Z,60.09
2023-05-14T23:50:44.006Z,60.65
2023-05-14T23:53:12.009Z,60.86
2023-05-14T23:55:39.776Z,60.40
2023-05-14T23:58:08.018Z,59.78
